15:36
Airports
History
Links
Donate
Help keep this website running!
PayPal
Bitcoin
This page is community maintained. The information is intended for PC simulator navigation or reference.
Always use approved charts for navigation.
AZ5
Cache Creek
Cache Creek (AZ5)
Cache Creek, British Columbia, Canada
(U)
Lat/Lng:50° 47' 0" N / 121° 18' 60" W
50.783334 / -121.316666
Elevation:2034'ft / 620mMSL
ID / ICAO:AZ5
Runways:1
Longest:15-33
Asphalt 998m / 3,274ft
Nearby Weather15:00 GMT 2018-02-19
Nearby weather at CYKA, Kamloops located 38.5 nautical miles from AZ5
Altimeter: 30.28
Visibility: 40.0 statute miles
Wind: 5 knots (from 120°)
Temp: -14°c / 7°f
Humidity: 71.6%

METAR: CYKA 191500Z 12005KT 030V150 40SM FEW040 M14/M18 A3028 RMK SC1 SLP283

(Powered by phpweather)
Airport Radio Frequencies
CTAF: 123.2
Nearby VORs <50NM
Nearby NDBs
Runway 15 / 33
Dimensions:997.8 x 22.9m 3274' x 75'ft
Surface:Asphalt
Runway 15 [A]Runway 33 [B]
Heading:170°TH 350°TH
Lat:
Lng:
50° 47' 16"N
121° 19' 4.01"W
50° 46' 44"N
121° 18' 55.98"W
User Notes and Comments
50° 47' 0" N / 121° 18' 60" W
Distance To
Airport ID:
Nearby Airports
(U) Lillooet 26.3 NM
AR3 WSW 253°
(U) Kamloops 38.5 NM
CYKA ( WX ) E 98°
(U) ECHO VALLEY 43.2 NM
CBJ4 NW 317°
(U) Merritt 52.1 NM
AD5 SSE 151°
(U) One Hundred Mile House 59.1 NM
AV3 N
(U) Douglas Lake 65.6 NM
AL3 SE 130°
(U) ONE ZERO EIGHT MILE AIRPORT 65.9 NM
CZML N 359°
VFR Chart
Flight Planning at SkyVector.com